Flight Track Log - Related Links

Times and Time Zones

All times are in EDT time to prevent confusion due to time zone crossing. See the EJA221 flight status page for this flight to view local times or setup timezone preferences in your user account.

Time Position Orientation Groundspeed Altitude Reporting Facility
EDT Latitude Longitude Course Direction KTS MPH feet Rate Location/Type
Sun 02:17:29 PM 42.6656 -83.3928 136° Southeast 177 204 2,000  Level Cleveland Center
Sun 02:18:55 PM 42.6272 -83.3431 136° Southeast 213 245 3,000 863 Climbing Cleveland Center
Sun 02:20:02 PM 42.5936 -83.4375 244° Southwest 275 316 4,200 1,556 Climbing Cleveland Center
Sun 02:21:10 PM 42.5556 -83.5428 244° Southwest 276 318 6,500 1,800 Climbing Cleveland Center
Sun 02:21:12 PM 42.5556 -83.5428 244° Southwest 277 319 6,300 3,194 Descending Cleveland Center
Sun 02:22:12 PM 42.5378 -83.6606 258° West 278 320 9,800 2,650 Climbing Cleveland Center
Sun 02:23:12 PM 42.5125 -83.7522 250° West 292 336 11,600 1,900 Climbing Cleveland Center
Sun 02:24:12 PM 42.4906 -83.8667 255° West 324 373 13,600 1,800 Climbing Cleveland Center
Sun 02:25:12 PM 42.4633 -84.0058 255° West 345 397 15,200 2,000 Climbing Cleveland Center
Sun 02:26:12 PM 42.4389 -84.1283 255° West 358 412 17,600 2,050 Climbing Cleveland Center
Sun 02:27:12 PM 42.4281 -84.2714 264° West 370 426 19,300 1,714 Climbing Cleveland Center
Sun 02:28:04 PM 42.4333 -84.4011 273° West 387 445 20,800 1,789 Climbing Chicago Center
Sun 02:29:06 PM 42.4367 -84.5489 272° West 393 452 22,700 1,887 Climbing Chicago Center
Sun 02:30:08 PM 42.4400 -84.6978 272° West 396 456 24,700 1,935 Climbing Chicago Center
Sun 02:31:10 PM 42.4447 -84.8519 272° West 409 471 26,700 1,645 Climbing Chicago Center
Sun 02:32:12 PM 42.4475 -85.0056 271° West 410 472 28,100 1,355 Climbing Chicago Center
Sun 02:33:14 PM 42.4519 -85.2042 272° West 438 504 29,500 1,306 Climbing Chicago Center
Sun 02:34:16 PM 42.4553 -85.3781 272° West 455 524 30,800 1,210 Climbing Chicago Center
Sun 02:35:18 PM 42.4478 -85.5592 267° West 474 545 32,000 871 Climbing Chicago Center
Sun 02:36:20 PM 42.4236 -85.7364 260° West 477 549 32,600 774 Climbing Chicago Center
Sun 02:37:22 PM 42.3969 -85.9136 259° West 479 551 33,600 960 Climbing Chicago Center
Sun 02:38:25 PM 42.3717 -86.0911 259° West 479 551 34,600 1,104 Climbing Chicago Center
Sun 02:39:27 PM 42.3408 -86.3017 259° West 474 545 35,900 1,065 Climbing Chicago Center
Sun 02:40:29 PM 42.3158 -86.4761 259° West 473 544 36,800 1,065 Climbing Chicago Center
Sun 02:41:31 PM 42.2875 -86.6603 258° West 474 545 38,100 1,161 Climbing Chicago Center
Sun 02:42:33 PM 42.2647 -86.8275 260° West 472 543 39,200 919 Climbing Chicago Center
Sun 02:43:35 PM 42.2406 -86.9969 259° West 466 536 40,000 387 Climbing Chicago Center
Sun 02:44:37 PM 42.2103 -87.1675 257° West 469 540 40,000  Level Chicago Center
Sun 02:45:39 PM 42.1783 -87.3772 258° West 479 551 40,000  Level Chicago Center
Sun 02:46:41 PM 42.1514 -87.5536 258° West 485 558 40,000  Level Chicago Center
Sun 02:47:43 PM 42.1233 -87.7292 258° West 484 557 40,000  Level Chicago Center
Sun 02:48:46 PM 42.0950 -87.9058 258° West 486 559 40,000  Level Chicago Center
Sun 02:49:48 PM 42.0667 -88.0822 258° West 487 560 40,000  Level Chicago Center
Sun 02:50:50 PM 42.0314 -88.2942 257° West 487 560 40,000  Level Chicago Center
Sun 02:51:52 PM 42.0022 -88.4719 258° West 493 567 40,000  Level Chicago Center
Sun 02:52:54 PM 41.9719 -88.6458 257° West 488 562 40,000  Level Chicago Center
Sun 02:53:56 PM 41.9419 -88.8236 257° West 492 566 40,000  Level Chicago Center
Sun 02:54:58 PM 41.9061 -89.0358 257° West 492 566 40,000  Level Chicago Center
Sun 02:56:00 PM 41.8756 -89.2119 257° West 489 563 40,000  Level Chicago Center
Sun 02:57:02 PM 41.8439 -89.3889 257° West 490 564 40,000  Level Chicago Center
Sun 02:58:04 PM 41.8131 -89.5656 257° West 492 566 40,000  Level Chicago Center
Sun 02:59:06 PM 41.7817 -89.7444 257° West 492 566 40,000  Level Chicago Center
Sun 03:00:08 PM 41.7514 -89.9211 257° West 490 564 40,000  Level Chicago Center
Sun 03:01:10 PM 41.7125 -90.1344 256° West 493 567 40,000  Level Chicago Center
Sun 03:02:13 PM 41.6797 -90.3147 256° West 500 575 40,000  Level Chicago Center
Sun 03:03:15 PM 41.6464 -90.4917 256° West 494 568 40,000  Level Chicago Center
Sun 03:04:17 PM 41.6131 -90.6631 255° West 493 567 40,000  Level Chicago Center
Sun 03:05:19 PM 41.5739 -90.8736 256° West 490 564 40,000  Level Chicago Center
Sun 03:06:21 PM 41.5406 -91.0500 256° West 493 567 40,000  Level Chicago Center
Sun 03:07:23 PM 41.5056 -91.2308 256° West 489 563 40,000  Level Chicago Center
Sun 03:08:25 PM 41.4728 -91.4014 256° West 494 568 40,000  Level Chicago Center
Sun 03:09:27 PM 41.4383 -91.5772 255° West 494 568 40,000  Level Chicago Center
Sun 03:10:29 PM 41.3967 -91.7911 256° West 498 573 40,000  Level Chicago Center
Sun 03:11:31 PM 41.3611 -91.9669 255° West 496 571 40,000  Level Chicago Center
Sun 03:12:33 PM 41.3256 -92.1417 255° West 495 570 40,000  Level Chicago Center
Sun 03:13:35 PM 41.2903 -92.3181 255° West 496 571 40,000  Level Chicago Center
Sun 03:14:37 PM 41.2503 -92.5128 255° West 499 574 40,000  Level Chicago Center
Sun 03:15:40 PM 41.2142 -92.6869 255° West 497 572 40,000  Level Chicago Center
Sun 03:16:42 PM 41.1769 -92.8628 254° West 501 577 40,000  Level Chicago Center
Sun 03:17:32 PM 41.1553 -92.9689 255° West 499 574 40,000  Level Minneapolis Center
Sun 03:18:34 PM 41.1108 -93.1792 254° West 501 577 40,000  Level Minneapolis Center
Sun 03:19:36 PM 41.0669 -93.3850 254° West 495 570 40,000  Level Minneapolis Center
Sun 03:20:38 PM 41.0297 -93.5611 254° West 501 577 40,000  Level Minneapolis Center
Sun 03:21:40 PM 40.9900 -93.7369 253° West 503 579 40,000  Level Minneapolis Center
Sun 03:22:42 PM 40.9456 -93.9478 254° West 503 579 40,000  Level Minneapolis Center
Sun 03:23:45 PM 40.9033 -94.1250 253° West 506 582 40,000  Level Minneapolis Center
Sun 03:24:47 PM 40.8619 -94.3025 253° West 510 587 40,000  Level Minneapolis Center
Sun 03:25:49 PM 40.8236 -94.4781 254° West 508 585 40,000  Level Minneapolis Center
Sun 03:26:51 PM 40.7792 -94.6736 253° West 504 580 40,000  Level Minneapolis Center
Sun 03:27:53 PM 40.7383 -94.8536 253° West 508 585 40,000  Level Minneapolis Center
Sun 03:28:55 PM 40.6967 -95.0339 253° West 510 587 40,000  Level Minneapolis Center
Sun 03:29:57 PM 40.6542 -95.2139 253° West 512 589 40,000  Level Minneapolis Center
Sun 03:30:59 PM 40.6042 -95.4283 253° West 509 586 40,000  Level Minneapolis Center
Sun 03:32:01 PM 40.5617 -95.6069 253° West 509 586 40,000  Level Minneapolis Center
Sun 03:33:03 PM 40.5206 -95.7836 253° West 505 581 40,000  Level Minneapolis Center
Sun 03:34:05 PM 40.4856 -95.9253 252° West 505 581 40,000  Level Minneapolis Center
Sun 03:35:07 PM 40.4336 -96.1444 253° West 516 594 40,000  Level Minneapolis Center
Sun 03:36:09 PM 40.3886 -96.3250 252° West 518 596 40,000  Level Minneapolis Center
Sun 03:37:11 PM 40.3447 -96.5050 252° West 517 595 40,000  Level Minneapolis Center
Sun 03:38:13 PM 40.3003 -96.6847 252° West 518 596 40,000  Level Minneapolis Center
Sun 03:39:16 PM 40.2467 -96.9006 252° West 518 596 40,000  Level Minneapolis Center
Sun 03:40:18 PM 40.2003 -97.0797 251° West 519 597 40,000  Level Minneapolis Center
Sun 03:41:20 PM 40.1561 -97.2597 252° West 519 597 40,000  Level Minneapolis Center
Sun 03:42:22 PM 40.1128 -97.4281 251° West 521 600 40,000  Level Minneapolis Center
Sun 03:43:24 PM 40.0561 -97.6439 251° West 522 601 40,000  Level Minneapolis Center
Sun 03:44:26 PM 40.0097 -97.8253 252° West 524 603 40,000  Level Minneapolis Center
Sun 03:45:28 PM 39.9619 -98.0078 251° West 528 608 40,000  Level Minneapolis Center
Sun 03:46:30 PM 39.9139 -98.1900 251° West 530 610 40,000  Level Minneapolis Center
Sun 03:47:32 PM 39.8669 -98.3694 251° West 525 604 40,000  Level Minneapolis Center
Sun 03:48:34 PM 39.8186 -98.5483 251° West 524 603 40,000  Level Minneapolis Center
Sun 03:49:36 PM 39.7694 -98.7267 250° West 523 602 40,000  Level Minneapolis Center
Sun 03:50:38 PM 39.7117 -98.9403 251° West 522 601 40,000  Level Minneapolis Center
Sun 03:51:34 PM 39.6733 -99.0831 251° West 521 600 40,000  Level Denver Center
Sun 03:52:36 PM 39.6244 -99.2608 250° West 521 600 40,000  Level Denver Center
Sun 03:53:50 PM 39.5653 -99.4739 250° West 521 600 40,000  Level Denver Center
Sun 03:54:52 PM 39.5067 -99.6842 250° West 518 596 40,000  Level Denver Center
Sun 03:55:54 PM 39.4553 -99.8633 250° West 512 589 40,000 240 Level Denver Center
Sun 03:56:57 PM 39.4089 -100.0294 250° West 512 589 40,500 624 Climbing Denver Center
Sun 03:57:59 PM 39.3539 -100.2214 250° West 511 588 41,300 677 Climbing Denver Center
Sun 03:59:01 PM 39.3078 -100.3839 250° West 504 580 41,900 677 Climbing Denver Center
Sun 04:00:03 PM 39.2536 -100.5708 250° West 497 572 42,700 532 Climbing Denver Center
Sun 04:01:05 PM 39.2072 -100.7300 249° West 494 568 43,000 146 Climbing Denver Center
Sun 04:02:06 PM 39.1683 -100.8625 249° West 496 571 43,000  Level Denver Center
Sun 04:03:09 PM 39.1069 -101.0736 250° West 491 565 43,000  Level Denver Center
Sun 04:04:23 PM 39.0606 -101.2300 249° West 490 564 43,000  Level Denver Center
Sun 04:05:26 PM 38.9950 -101.4486 249° West 484 557 43,000  Level Denver Center
Sun 04:06:28 PM 38.9489 -101.6022 249° West 482 555 43,000  Level Denver Center
Sun 04:07:30 PM 38.8942 -101.7794 248° West 482 555 43,000  Level Denver Center
Sun 04:08:32 PM 38.8492 -101.9314 249° West 480 552 43,000  Level Denver Center
Sun 04:09:34 PM 38.7950 -102.1083 249° West 478 550 43,000  Level Denver Center
Sun 04:10:36 PM 38.7481 -102.2622 249° West 485 558 43,000  Level Denver Center
Sun 04:11:38 PM 38.6914 -102.4397 248° West 483 556 43,000  Level Denver Center
Sun 04:12:40 PM 38.6450 -102.5917 249° West 481 554 43,000  Level Denver Center
Sun 04:13:42 PM 38.5900 -102.7678 248° West 478 550 43,000  Level Denver Center
Sun 04:14:44 PM 38.5414 -102.9200 248° West 484 557 43,000  Level Denver Center
Sun 04:15:46 PM 38.4942 -103.0736 249° West 486 559 43,000  Level Denver Center
Sun 04:16:48 PM 38.4364 -103.2500 247° West 484 557 43,000  Level Denver Center
Sun 04:17:51 PM 38.3883 -103.4011 248° West 481 554 43,000  Level Denver Center
Sun 04:18:53 PM 38.3358 -103.5658 248° West 476 548 43,000  Level Denver Center
Sun 04:19:55 PM 38.2792 -103.7367 247° West 474 545 43,000  Level Denver Center
Sun 04:20:57 PM 38.2325 -103.8844 248° West 472 543 43,000  Level Denver Center
Sun 04:21:59 PM 38.1764 -104.0544 247° West 470 541 43,000  Level Denver Center
Sun 04:23:01 PM 38.1281 -104.2000 247° West 471 542 43,000  Level Denver Center
Sun 04:24:03 PM 38.0717 -104.3700 247° West 470 541 43,000  Level Denver Center
Sun 04:25:05 PM 38.0233 -104.5142 247° West 467 537 43,000  Level Denver Center
Sun 04:26:07 PM 37.9678 -104.6806 247° West 462 532 43,000  Level Denver Center
Sun 04:27:10 PM 37.9194 -104.8233 247° West 463 533 43,000  Level Denver Center
Sun 04:28:11 PM 37.8622 -104.9917 247° West 466 536 43,000  Level Denver Center
Sun 04:29:13 PM 37.8147 -105.1308 247° West 455 524 43,000  Level Denver Center
Sun 04:30:15 PM 37.7594 -105.2933 247° West 451 519 43,000  Level Denver Center
Sun 04:31:17 PM 37.7106 -105.4328 246° West 454 522 43,000  Level Denver Center
Sun 04:32:19 PM 37.6550 -105.5936 246° West 450 518 43,000  Level Denver Center
Sun 04:33:22 PM 37.6078 -105.7331 247° West 452 520 43,000  Level Denver Center
Sun 04:34:24 PM 37.5500 -105.8972 246° West 457 526 43,000  Level Denver Center
Sun 04:35:26 PM 37.4972 -106.0417 245° Southwest 452 520 43,000  Level Denver Center
Sun 04:36:28 PM 37.4489 -106.1808 246° West 453 521 43,000  Level Denver Center
Sun 04:37:30 PM 37.3919 -106.3431 246° West 455 524 43,000  Level Denver Center
Sun 04:38:32 PM 37.3431 -106.4814 246° West 454 522 43,000  Level Denver Center
Sun 04:39:34 PM 37.2831 -106.6431 245° Southwest 457 526 43,000  Level Denver Center
Sun 04:40:36 PM 37.2344 -106.7825 246° West 456 525 43,000  Level Denver Center
Sun 04:41:38 PM 37.1697 -106.9389 243° Southwest 454 522 43,000  Level Denver Center
Sun 04:42:40 PM 37.1119 -107.0744 242° Southwest 457 526 43,000  Level Denver Center
Sun 04:43:42 PM 37.0522 -107.2058 240° Southwest 456 525 43,000  Level Denver Center
Sun 04:44:44 PM 36.9944 -107.3656 246° West 452 520 43,000  Level Denver Center
Sun 04:45:46 PM 36.9489 -107.5053 248° West 452 520 43,000  Level Denver Center
Sun 04:46:48 PM 36.8942 -107.6686 247° West 457 526 43,000  Level Denver Center
Sun 04:47:50 PM 36.8558 -107.7847 248° West 454 522 43,000  Level Denver Center
Sun 04:48:52 PM 36.7928 -107.9708 247° West 454 522 43,000  Level Denver Center
Sun 04:49:54 PM 36.7478 -108.1075 248° West 447 514 43,000  Level Denver Center
Sun 04:50:56 PM 36.7164 -108.2778 257° West 453 521 43,000  Level Denver Center
Sun 04:51:58 PM 36.6939 -108.3981 257° West 449 517 43,000  Level Denver Center
Sun 04:53:01 PM 36.6575 -108.5939 257° West 453 521 43,000  Level Denver Center
Sun 04:54:03 PM 36.6294 -108.7414 257° West 458 527 43,000  Level Denver Center
Sun 04:55:04 PM 36.6072 -108.8628 257° West 456 525 43,000  Level Denver Center
Sun 04:56:07 PM 36.5700 -109.0547 256° West 450 518 43,000  Level Denver Center
Sun 04:57:09 PM 36.5361 -109.2247 256° West 455 524 43,000  Level Denver Center
Sun 04:58:11 PM 36.5081 -109.3694 256° West 452 520 43,000  Level Denver Center
Sun 04:59:13 PM 36.4750 -109.5367 256° West 450 518 43,000  Level Denver Center
Sun 05:00:15 PM 36.4475 -109.6811 257° West 449 517 43,000  Level Denver Center
Sun 05:01:17 PM 36.4131 -109.8508 256° West 453 521 43,000  Level Denver Center
Sun 05:02:19 PM 36.3839 -109.9942 256° West 450 518 43,000  Level Denver Center
Sun 05:03:21 PM 36.3497 -110.1597 256° West 452 520 43,000  Level Denver Center
Sun 05:04:23 PM 36.3189 -110.3114 256° West 453 521 43,000  Level Denver Center
Sun 05:05:37 PM 36.2892 -110.4617 256° West 451 519 43,000  Level Denver Center
Sun 05:06:40 PM 36.2503 -110.6442 255° West 455 524 43,000  Level Denver Center
Sun 05:07:42 PM 36.2186 -110.7944 255° West 452 520 43,000  Level Denver Center
Sun 05:08:44 PM 36.1811 -110.9747 256° West 452 520 43,000  Level Denver Center
Sun 05:09:46 PM 36.1500 -111.1244 256° West 451 519 43,000  Level Denver Center
Sun 05:10:48 PM 36.1194 -111.2747 256° West 450 518 43,000  Level Denver Center
Sun 05:11:50 PM 36.0939 -111.3936 255° West 449 517 43,000  Level Denver Center
Sun 05:12:52 PM 36.0550 -111.5758 255° West 454 522 43,000  Level Denver Center
Sun 05:13:54 PM 36.0189 -111.7256 253° West 455 524 43,000  Level Denver Center
Sun 05:14:56 PM 35.9756 -111.9053 253° West 455 524 43,000  Level Denver Center
Sun 05:15:59 PM 35.9419 -112.0542 254° West 452 520 43,000  Level Denver Center
Sun 05:17:01 PM 35.9061 -112.2036 254° West 453 521 43,000  Level Denver Center
Sun 05:18:03 PM 35.8700 -112.3539 254° West 455 524 43,000  Level Denver Center
Sun 05:18:33 PM 35.8506 -112.4311 253° West 455 524 43,000  Level Los Center
Sun 05:19:35 PM 35.8158 -112.5786 254° West 454 522 43,000  Level Los Center
Sun 05:20:37 PM 35.7794 -112.7253 253° West 453 521 43,000  Level Los Center
Sun 05:21:39 PM 35.7361 -112.9017 253° West 455 524 43,000  Level Los Center
Sun 05:22:41 PM 35.7222 -113.0561 264° West 464 534 43,000  Level Los Center
Sun 05:23:44 PM 35.7244 -113.2144 271° West 469 540 43,000  Level Los Center
Sun 05:24:46 PM 35.7286 -113.3722 272° West 469 540 43,000  Level Los Center
Sun 05:25:48 PM 35.6958 -113.5500 257° West 455 524 43,000  Level Los Center
Sun 05:26:50 PM 35.6525 -113.6947 250° West 455 524 43,000  Level Los Center
Sun 05:27:52 PM 35.6175 -113.8094 249° West 454 522 43,000  Level Los Center
Sun 05:28:54 PM 35.5658 -113.9842 250° West 457 526 43,000  Level Los Center
Sun 05:29:56 PM 35.5211 -114.1289 249° West 457 526 43,000  Level Los Center
Sun 05:30:58 PM 35.4756 -114.2853 250° West 455 524 43,000  Level Los Center
Sun 05:32:00 PM 35.4325 -114.4319 250° West 455 524 43,000  Level Los Center
Sun 05:33:03 PM 35.3769 -114.6083 249° West 461 531 43,000  Level Los Center
Sun 05:34:05 PM 35.3333 -114.7550 250° West 457 526 43,000  Level Los Center
Sun 05:35:07 PM 35.2889 -114.9000 249° West 454 522 43,000  Level Los Center
Sun 05:36:09 PM 35.2439 -115.0439 249° West 452 520 43,000  Level Los Center
Sun 05:37:11 PM 35.1992 -115.1886 249° West 452 520 43,000  Level Los Center
Sun 05:38:13 PM 35.1503 -115.3494 250° West 453 521 43,000  Level Los Center
Sun 05:39:15 PM 35.1050 -115.4922 249° West 453 521 43,000  Level Los Center
Sun 05:40:17 PM 35.0603 -115.6372 249° West 456 525 43,000 -794 Level Los Center
Sun 05:41:31 PM 35.0283 -115.7861 255° West 456 525 41,200 -1,839 Descending Los Center
Sun 05:42:34 PM 34.9928 -115.9664 257° West 456 525 38,800 -1,536 Descending Los Center
Sun 05:43:36 PM 34.9542 -116.1500 256° West 464 534 38,000 -387 Descending Los Center
Sun 05:44:38 PM 34.9219 -116.3067 256° West 474 545 38,000 -532 Level Los Center
Sun 05:45:40 PM 34.8889 -116.4628 256° West 478 550 36,900 -1,500 Descending Los Center
Sun 05:46:42 PM 34.8572 -116.6178 256° West 475 547 34,900 -1,935 Descending Los Center
Sun 05:47:44 PM 34.8239 -116.7753 256° West 478 550 32,900 -1,920 Descending Los Center
Sun 05:48:47 PM 34.7906 -116.9333 256° West 480 552 30,900 -1,392 Descending Los Center
Sun 05:49:49 PM 34.7486 -117.1253 255° West 487 560 30,000 -435 Descending Los Center
Sun 05:50:51 PM 34.7142 -117.2861 255° West 488 562 30,000  Level Los Center
Sun 05:51:53 PM 34.6786 -117.4481 255° West 491 565 30,000  Level Los Center
Sun 05:52:55 PM 34.6436 -117.6097 255° West 493 567 30,000  Level Los Center
Sun 05:53:57 PM 34.6078 -117.7697 255° West 489 563 30,000  Level Los Center
Sun 05:54:59 PM 34.5733 -117.9275 255° West 486 559 30,000  Level Los Center
Sun 05:56:01 PM 34.5442 -118.0558 255° West 490 564 30,000 -532 Level Los Center
Sun 05:57:03 PM 34.4994 -118.2633 255° West 491 565 28,900 -1,728 Descending Los Center
Sun 05:58:06 PM 34.4633 -118.4203 254° West 487 560 26,400 -1,984 Descending Los Center
Sun 05:59:07 PM 34.4336 -118.5472 254° West 492 566 24,800 -1,161 Descending Los Center
Sun 06:00:10 PM 34.3819 -118.7697 254° West 495 570 24,000 -387 Descending Los Center
Sun 06:01:11 PM 34.3550 -118.8947 255° West 488 562 24,000 -1,456 Level Los Center
Sun 06:02:26 PM 34.3442 -119.0622 266° West 421 484 20,700 -3,664 Descending Los Center
Sun 06:03:04 PM 34.3356 -119.1894 265° West 408 470 17,100 -4,454 Descending Los Center
Sun 06:04:03 PM 34.3136 -119.3117 258° West 387 445 13,500 -3,200 Descending Los Center
Sun 06:05:04 PM 34.2778 -119.4303 250° West 353 406 10,700 -1,882 Descending Los Center
Sun 06:05:45 PM 34.2703 -119.4764 259° West 344 396 10,300 -1,107 Descending Los Center
Sun 06:06:47 PM 34.2639 -119.5931 266° West 295 339 8,800 -1,694 Descending Los Center
Sun 06:07:49 PM 34.2708 -119.6878 275° West 316 364 6,800 -1,935 Descending Los Center
Sun 06:08:51 PM 34.3369 -119.7222 337° Northwest 275 316 4,800 -1,488 Descending Los Center
Sun 06:09:54 PM 34.3975 -119.7136 North 240 276 3,700 -1,008 Descending Los Center
Sun 06:10:56 PM 34.4272 -119.7558 310° West 195 224 2,700 -1,403 Descending Los Center
Sun 06:11:58 PM 34.4303 -119.8081 274° West 165 190 800 -1,161 Descending Los Center
Sun 06:13:00 PM 34.4331 -119.8478 275° West 152 175 300 -484 Descending Los Center
Sun 06:14:00 PM 34.4262 -119.8415 North  Level Estimated

Login

Don't have an account? Register now (free) for customized features, flight alerts, and more!